Terminal Aerodrome Forecast
Issued by NWS

Home | Current Version | Previous Version | Text Only | Print | Product List | Glossary Off
Versions: 1 2 3 4 5 6 7 8 9 10 11 12 13 14 15 16 17 18 19 20 21 22

997
FTUS43 KIWX 201720
TAFSBN
TAF
KSBN 201720Z 2018/2118 18005KT 2SM BR OVC005
      TEMPO 2018/2021 1SM BR OVC002
     FM210000 17004KT 3SM BR OVC003
     FM210100 16004KT 4SM BR OVC003
     FM210300 16005KT 3SM BR VCSH OVC008
     FM211500 16006KT 3SM BR BKN003=

USA.gov is the U.S. government's official web portal to all federal, state and local government web resources and services.